Terminal Aerodrome Forecast
Issued by NWS

Home | Current Version | Previous Version | Text Only | Print | Product List | Glossary On
Versions: 1 2 3 4 5 6 7 8 9 10 11 12 13 14 15 16 17 18 19 20 21
000
FTUS45 KABQ 312326
TAFLVS
TAF
KLVS 312326Z 0100/0124 21007KT P6SM VCTS BKN050CB
      TEMPO 0100/0101 VRB15KT -SHRA BKN040
     FM010100 17010KT P6SM VCSH BKN080
     FM010900 02006KT P6SM FEW020 BKN070
      TEMPO 0109/0113 BKN020
     FM011800 23010KT P6SM SCT060 BKN090
     FM012000 25010KT P6SM VCTS SCT060CB BKN090=

USA.gov is the U.S. government's official web portal to all federal, state and local government web resources and services.